Wolcott, Colorado
Current Conditions -  °F | °C
As of 2:15 AM on Wednesday 22 Oct 2014 (Local Time) from KEGE Reporting Station
Overcast Overcast  
Wind Chill: 46°   Ceiling: 6500
Heat Index: 46°   Visibility: 10mi
Dew Point: 43°   Wind: 3mph
Humidity: 87%   Direction: 50°NE
Pressure: 30.19"   Gusts: NA
Location:  39.7°N, 106.68°W
Report Text: KEGE 220815Z AUTO 05003KT 10SM FEW046 BKN065 OVC075 08/06 A3019 RMK AO1
Loading
Personal Weather Stations






























Interactive Weather Map
Tropical Storm Tracking
New forecast layout! Learn more

10-Day Weather Forecast

Advertisements
Track Severe Weather on mobile